createdAt,value
2017-05-14T00:01:53.185Z,1016.128
2017-05-14T00:04:47.639Z,1016.138
2017-05-14T00:07:42.069Z,1016.147
2017-05-14T00:10:36.508Z,1016.159
2017-05-14T00:13:31.028Z,1016.144
2017-05-14T00:16:25.578Z,1016.103
2017-05-14T00:19:20.139Z,1016.121
2017-05-14T00:22:14.552Z,1016.143
2017-05-14T00:25:08.907Z,1016.159
2017-05-14T00:28:03.224Z,1016.176
2017-05-14T00:30:57.682Z,1016.215
2017-05-14T00:33:52.132Z,1016.218
2017-05-14T00:36:46.453Z,1016.230
2017-05-14T00:39:40.909Z,1016.265
2017-05-14T00:42:35.207Z,1016.228
2017-05-14T00:45:29.770Z,1016.237
2017-05-14T00:48:24.096Z,1016.260
2017-05-14T00:51:18.481Z,1016.301
2017-05-14T00:54:12.795Z,1016.288
2017-05-14T00:57:07.055Z,1016.336
2017-05-14T01:00:01.466Z,1016.366
2017-05-14T01:02:55.844Z,1016.349
2017-05-14T01:05:50.087Z,1016.358
2017-05-14T01:08:44.502Z,1016.405
2017-05-14T01:11:38.772Z,1016.453
2017-05-14T01:14:33.134Z,1016.464
2017-05-14T01:17:27.417Z,1016.500
2017-05-14T01:20:21.673Z,1016.537
2017-05-14T01:23:15.988Z,1016.565
2017-05-14T01:26:10.317Z,1016.556
2017-05-14T01:29:04.716Z,1016.573
2017-05-14T01:31:59.014Z,1016.566
2017-05-14T01:34:53.353Z,1016.543
2017-05-14T01:37:47.726Z,1016.536
2017-05-14T01:40:42.070Z,1016.583
2017-05-14T01:43:36.385Z,1016.593
2017-05-14T01:46:30.736Z,1016.553
2017-05-14T01:49:25.199Z,1016.576
2017-05-14T01:52:19.363Z,1016.552
2017-05-14T01:55:13.734Z,1016.551
2017-05-14T01:58:08.172Z,1016.510
2017-05-14T02:01:02.422Z,1016.482
2017-05-14T02:03:56.769Z,1016.533
2017-05-14T02:06:51.154Z,1016.562
2017-05-14T02:09:45.451Z,1016.607
2017-05-14T02:12:39.728Z,1016.678
2017-05-14T02:15:34.027Z,1016.782
2017-05-14T02:18:28.424Z,1016.859
2017-05-14T02:21:22.732Z,1016.897
2017-05-14T02:24:17.081Z,1016.913
2017-05-14T02:27:11.768Z,1016.990
2017-05-14T02:30:06.187Z,1017.036
2017-05-14T02:33:00.499Z,1017.023
2017-05-14T02:35:54.878Z,1017.077
2017-05-14T02:38:49.427Z,1017.108
2017-05-14T02:41:43.809Z,1017.124
2017-05-14T02:44:38.220Z,1017.107
2017-05-14T02:47:32.604Z,1017.144
2017-05-14T02:50:26.979Z,1017.212
2017-05-14T02:56:15.648Z,1017.292
2017-05-14T02:59:09.899Z,1017.322
2017-05-14T03:02:04.176Z,1017.299
2017-05-14T03:04:58.537Z,1017.320
2017-05-14T03:07:53.060Z,1017.356
2017-05-14T03:10:47.438Z,1017.384
2017-05-14T03:13:41.707Z,1017.417
2017-05-14T03:16:36.035Z,1017.430
2017-05-14T03:19:30.363Z,1017.464
2017-05-14T03:22:24.630Z,1017.511
2017-05-14T03:25:18.889Z,1017.531
2017-05-14T03:28:13.252Z,1017.589
2017-05-14T03:31:07.660Z,1017.623
2017-05-14T03:34:02.074Z,1017.617
2017-05-14T03:36:56.421Z,1017.620
2017-05-14T03:39:50.742Z,1017.664
2017-05-14T03:42:45.079Z,1017.711
2017-05-14T03:45:39.455Z,1017.703
2017-05-14T03:48:33.769Z,1017.716
2017-05-14T03:51:28.130Z,1017.743
2017-05-14T03:54:22.486Z,1017.756
2017-05-14T03:57:16.757Z,1017.777
2017-05-14T04:00:11.069Z,1017.790
2017-05-14T04:03:05.485Z,1017.846
2017-05-14T04:05:59.920Z,1017.863
2017-05-14T04:08:54.232Z,1017.899
2017-05-14T04:11:48.559Z,1017.912
2017-05-14T04:14:42.990Z,1017.974
2017-05-14T04:17:37.330Z,1017.998
2017-05-14T04:20:31.718Z,1018.038
2017-05-14T04:23:26.069Z,1018.046
2017-05-14T04:26:20.461Z,1018.072
2017-05-14T04:29:14.863Z,1018.115
2017-05-14T04:32:09.435Z,1018.158
2017-05-14T04:35:03.778Z,1018.202
2017-05-14T04:40:52.409Z,1018.303
2017-05-14T04:43:46.845Z,1018.370
2017-05-14T04:49:35.569Z,1018.428
2017-05-14T04:52:29.984Z,1018.444
2017-05-14T04:55:24.677Z,1018.446
2017-05-14T04:58:19.060Z,1018.451
2017-05-14T05:01:13.564Z,1018.442
2017-05-14T05:04:07.945Z,1018.502
2017-05-14T05:07:02.287Z,1018.567
2017-05-14T05:09:56.737Z,1018.600
2017-05-14T05:12:51.227Z,1018.627
2017-05-14T05:15:45.891Z,1018.603
2017-05-14T05:18:40.126Z,1018.592
2017-05-14T05:21:34.553Z,1018.580
2017-05-14T05:24:28.951Z,1018.633
2017-05-14T05:27:23.558Z,1018.652
2017-05-14T05:30:17.995Z,1018.695
2017-05-14T05:33:12.403Z,1018.722
2017-05-14T05:36:06.928Z,1018.759
2017-05-14T05:39:01.402Z,1018.756
2017-05-14T05:41:55.848Z,1018.775
2017-05-14T05:44:50.272Z,1018.788
2017-05-14T05:47:44.796Z,1018.811
2017-05-14T05:50:39.436Z,1018.817
2017-05-14T05:53:33.815Z,1018.867
2017-05-14T05:56:28.277Z,1018.918
2017-05-14T05:59:22.735Z,1018.942
2017-05-14T06:02:17.248Z,1018.988
2017-05-14T06:05:11.676Z,1019.033
2017-05-14T06:11:00.650Z,1019.121
2017-05-14T06:13:55.199Z,1019.131
2017-05-14T06:16:49.606Z,1019.117
2017-05-14T06:19:44.084Z,1019.114
2017-05-14T06:22:38.630Z,1019.129
2017-05-14T06:25:33.123Z,1019.154
2017-05-14T06:28:27.548Z,1019.176
2017-05-14T06:34:16.452Z,1019.210
2017-05-14T06:37:10.945Z,1019.265
2017-05-14T06:40:05.496Z,1019.289
2017-05-14T06:42:59.934Z,1019.323
2017-05-14T06:45:54.550Z,1019.346
2017-05-14T06:48:49.045Z,1019.356
2017-05-14T06:51:43.593Z,1019.402
2017-05-14T06:54:38.035Z,1019.432
2017-05-14T06:57:32.585Z,1019.453
2017-05-14T07:00:27.117Z,1019.510
2017-05-14T07:03:21.734Z,1019.559
2017-05-14T07:06:16.242Z,1019.561
2017-05-14T07:09:10.856Z,1019.542
2017-05-14T07:12:05.534Z,1019.559
2017-05-14T07:15:00.216Z,1019.574
2017-05-14T07:17:54.740Z,1019.548
2017-05-14T07:20:49.378Z,1019.573
2017-05-14T07:23:44.059Z,1019.587
2017-05-14T07:26:38.566Z,1019.614
2017-05-14T07:29:33.228Z,1019.611
2017-05-14T07:32:28.067Z,1019.617
2017-05-14T07:35:22.856Z,1019.630
2017-05-14T07:38:17.584Z,1019.580
2017-05-14T07:41:12.248Z,1019.547
2017-05-14T07:44:06.920Z,1019.565
2017-05-14T07:47:01.756Z,1019.515
2017-05-14T07:49:56.653Z,1019.553
2017-05-14T07:52:51.477Z,1019.595
2017-05-14T07:55:46.357Z,1019.665
2017-05-14T07:58:41.106Z,1019.648
2017-05-14T08:01:35.814Z,1019.654
2017-05-14T08:04:30.534Z,1019.640
2017-05-14T08:07:25.380Z,1019.606
2017-05-14T08:10:20.116Z,1019.658
2017-05-14T08:13:14.854Z,1019.683
2017-05-14T08:16:09.594Z,1019.654
2017-05-14T08:19:04.231Z,1019.700
2017-05-14T08:21:59.273Z,1019.770
2017-05-14T08:24:53.911Z,1019.781
2017-05-14T08:27:48.751Z,1019.791
2017-05-14T08:30:43.621Z,1019.785
2017-05-14T08:33:38.708Z,1019.774
2017-05-14T08:36:33.599Z,1019.763
2017-05-14T08:39:28.418Z,1019.739
2017-05-14T08:42:23.315Z,1019.738
2017-05-14T08:45:18.111Z,1019.719
2017-05-14T08:48:12.810Z,1019.705
2017-05-14T08:51:07.613Z,1019.726
2017-05-14T08:54:02.205Z,1019.734
2017-05-14T08:56:57.054Z,1019.733
2017-05-14T08:59:51.774Z,1019.638
2017-05-14T09:02:46.792Z,1019.635
2017-05-14T09:05:41.436Z,1019.620
2017-05-14T09:08:36.282Z,1019.651
2017-05-14T09:11:31.132Z,1019.599
2017-05-14T09:14:26.140Z,1019.611
2017-05-14T09:17:21.151Z,1019.604
2017-05-14T09:20:16.237Z,1019.606
2017-05-14T09:23:11.230Z,1019.648
2017-05-14T09:29:01.572Z,1019.695
2017-05-14T09:31:56.662Z,1019.720
2017-05-14T09:34:51.798Z,1019.816
2017-05-14T09:37:46.919Z,1019.785
2017-05-14T09:40:42.077Z,1019.751
2017-05-14T09:43:37.255Z,1019.831
2017-05-14T09:46:32.413Z,1019.851
2017-05-14T09:49:27.582Z,1019.865
2017-05-14T09:52:22.712Z,1019.812
2017-05-14T09:55:17.990Z,1019.793
2017-05-14T09:58:13.255Z,1019.825
2017-05-14T10:01:08.424Z,1019.883
2017-05-14T10:04:03.549Z,1019.963
2017-05-14T10:06:58.578Z,1019.997
2017-05-14T10:09:53.683Z,1020.025
2017-05-14T10:12:48.781Z,1020.042
2017-05-14T10:15:43.779Z,1020.076
2017-05-14T10:18:38.903Z,1020.055
2017-05-14T10:21:34.057Z,1019.989
2017-05-14T10:24:28.997Z,1020.084
2017-05-14T10:27:23.884Z,1020.092
2017-05-14T10:30:18.808Z,1020.062
2017-05-14T10:33:13.834Z,1020.027
2017-05-14T10:36:08.784Z,1020.041
2017-05-14T10:39:03.795Z,1019.988
2017-05-14T10:41:58.682Z,1020.070
2017-05-14T10:44:53.539Z,1020.107
2017-05-14T10:47:48.576Z,1020.101
2017-05-14T10:50:43.470Z,1020.158
2017-05-14T10:53:38.384Z,1020.211
2017-05-14T10:56:33.443Z,1020.144
2017-05-14T10:59:28.215Z,1020.152
2017-05-14T11:02:22.865Z,1020.199
2017-05-14T11:05:17.678Z,1020.186
2017-05-14T11:08:12.415Z,1020.226
2017-05-14T11:11:07.141Z,1020.229
2017-05-14T11:14:01.876Z,1020.302
2017-05-14T11:16:56.709Z,1020.244
2017-05-14T11:19:51.450Z,1020.274
2017-05-14T11:22:46.141Z,1020.264
2017-05-14T11:25:40.883Z,1020.217
2017-05-14T11:28:35.556Z,1020.254
2017-05-14T11:31:30.321Z,1020.292
2017-05-14T11:34:25.069Z,1020.285
2017-05-14T11:37:19.887Z,1020.290
2017-05-14T11:40:14.628Z,1020.269
2017-05-14T11:43:09.347Z,1020.319
2017-05-14T11:46:04.151Z,1020.348
2017-05-14T11:51:53.653Z,1020.358
2017-05-14T11:54:48.438Z,1020.351
2017-05-14T11:57:43.222Z,1020.345
2017-05-14T12:00:38.016Z,1020.375
2017-05-14T12:03:32.786Z,1020.324
2017-05-14T12:06:27.534Z,1020.329
2017-05-14T12:12:17.226Z,1020.367
2017-05-14T12:15:11.952Z,1020.399
2017-05-14T12:18:06.719Z,1020.443
2017-05-14T12:21:01.414Z,1020.467
2017-05-14T12:23:56.208Z,1020.506
2017-05-14T12:26:51.015Z,1020.520
2017-05-14T12:29:45.753Z,1020.589
2017-05-14T12:32:40.467Z,1020.624
2017-05-14T12:35:35.089Z,1020.694
2017-05-14T12:38:29.750Z,1020.771
2017-05-14T12:41:24.441Z,1020.825
2017-05-14T12:44:19.274Z,1020.781
2017-05-14T12:47:13.868Z,1020.850
2017-05-14T12:50:08.442Z,1020.834
2017-05-14T12:53:03.054Z,1020.821
2017-05-14T12:55:57.859Z,1020.820
2017-05-14T12:58:52.587Z,1020.887
2017-05-14T13:01:47.284Z,1020.942
2017-05-14T13:04:41.899Z,1020.936
2017-05-14T13:07:36.639Z,1020.962
2017-05-14T13:10:31.494Z,1020.964
2017-05-14T13:13:26.455Z,1020.953
2017-05-14T13:16:21.262Z,1020.974
2017-05-14T13:19:16.138Z,1020.987
2017-05-14T13:22:10.948Z,1021.040
2017-05-14T13:25:05.687Z,1021.155
2017-05-14T13:28:00.565Z,1021.075
2017-05-14T13:30:55.392Z,1021.135
2017-05-14T13:33:50.163Z,1021.186
2017-05-14T13:36:44.987Z,1021.249
2017-05-14T13:39:39.879Z,1021.252
2017-05-14T13:42:34.786Z,1021.272
2017-05-14T13:45:29.592Z,1021.257
2017-05-14T13:48:24.331Z,1021.316
2017-05-14T13:51:19.138Z,1021.356
2017-05-14T13:54:13.841Z,1021.386
2017-05-14T13:57:08.701Z,1021.412
2017-05-14T14:00:03.449Z,1021.473
2017-05-14T14:02:58.390Z,1021.486
2017-05-14T14:05:53.247Z,1021.530
2017-05-14T14:08:48.138Z,1021.553
2017-05-14T14:11:42.803Z,1021.559
2017-05-14T14:14:37.568Z,1021.547
2017-05-14T14:17:32.301Z,1021.554
2017-05-14T14:20:27.019Z,1021.572
2017-05-14T14:23:21.714Z,1021.589
2017-05-14T14:26:16.491Z,1021.623
2017-05-14T14:29:11.362Z,1021.619
2017-05-14T14:32:06.208Z,1021.684
2017-05-14T14:35:01.079Z,1021.738
2017-05-14T14:40:50.536Z,1021.780
2017-05-14T14:43:45.294Z,1021.773
2017-05-14T14:46:40.046Z,1021.862
2017-05-14T14:49:34.776Z,1021.865
2017-05-14T14:52:29.534Z,1021.847
2017-05-14T14:55:24.395Z,1021.826
2017-05-14T14:58:19.093Z,1021.830
2017-05-14T15:01:13.815Z,1021.848
2017-05-14T15:04:08.643Z,1021.842
2017-05-14T15:07:03.364Z,1021.848
2017-05-14T15:09:58.083Z,1021.839
2017-05-14T15:12:52.835Z,1021.876
2017-05-14T15:15:47.542Z,1021.873
2017-05-14T15:18:42.488Z,1021.866
2017-05-14T15:24:32.159Z,1021.821
2017-05-14T15:27:26.876Z,1021.835
2017-05-14T15:30:21.697Z,1021.814
2017-05-14T15:33:16.575Z,1021.804
2017-05-14T15:36:11.385Z,1021.777
2017-05-14T15:39:06.315Z,1021.735
2017-05-14T15:42:01.223Z,1021.689
2017-05-14T15:44:56.134Z,1021.670
2017-05-14T15:47:50.919Z,1021.674
2017-05-14T15:50:45.891Z,1021.711
2017-05-14T15:53:40.720Z,1021.729
2017-05-14T15:56:35.555Z,1021.778
2017-05-14T15:59:30.200Z,1021.779
2017-05-14T16:02:25.106Z,1021.795
2017-05-14T16:05:19.734Z,1021.786
2017-05-14T16:08:14.544Z,1021.791
2017-05-14T16:14:03.966Z,1021.796
2017-05-14T16:16:58.667Z,1021.840
2017-05-14T16:19:53.499Z,1021.884
2017-05-14T16:22:48.296Z,1021.907
2017-05-14T16:25:43.181Z,1021.882
2017-05-14T16:28:37.972Z,1021.882
2017-05-14T16:31:32.752Z,1021.865
2017-05-14T16:34:27.396Z,1021.897
2017-05-14T16:37:22.142Z,1021.930
2017-05-14T16:40:17.161Z,1021.968
2017-05-14T16:43:12.029Z,1021.978
2017-05-14T16:51:56.432Z,1022.041
2017-05-14T16:54:51.259Z,1022.101
2017-05-14T16:57:45.954Z,1022.110
2017-05-14T17:00:40.813Z,1022.072
2017-05-14T17:03:35.402Z,1022.087
2017-05-14T17:06:30.211Z,1022.079
2017-05-14T17:09:24.962Z,1022.075
2017-05-14T17:12:19.775Z,1022.071
2017-05-14T17:15:14.518Z,1022.059
2017-05-14T17:18:09.268Z,1022.073
2017-05-14T17:21:04.173Z,1022.069
2017-05-14T17:23:58.811Z,1022.054
2017-05-14T17:26:53.496Z,1022.067
2017-05-14T17:29:48.316Z,1022.097
2017-05-14T17:35:37.863Z,1022.229
2017-05-14T17:41:27.189Z,1022.271
2017-05-14T17:44:21.907Z,1022.237
2017-05-14T17:47:16.749Z,1022.242
2017-05-14T17:50:11.424Z,1022.232
2017-05-14T17:53:06.221Z,1022.223
2017-05-14T17:56:00.893Z,1022.276
2017-05-14T17:58:55.825Z,1022.309
2017-05-14T18:01:50.442Z,1022.314
2017-05-14T18:04:45.100Z,1022.303
2017-05-14T18:07:39.801Z,1022.291
2017-05-14T18:10:34.635Z,1022.330
2017-05-14T18:13:29.694Z,1022.322
2017-05-14T18:23:22.470Z,1022.149
2017-05-14T18:26:16.335Z,1023.343
2017-05-14T18:29:10.380Z,1023.537
2017-05-14T18:32:04.768Z,1023.607
2017-05-14T18:34:59.043Z,1023.585
2017-05-14T18:37:53.309Z,1023.647
2017-05-14T18:40:47.955Z,1023.645
2017-05-14T18:43:42.307Z,1023.660
2017-05-14T18:46:36.627Z,1023.671
2017-05-14T18:49:30.986Z,1023.690
2017-05-14T18:52:25.524Z,1023.673
2017-05-14T18:55:20.010Z,1023.696
2017-05-14T18:58:14.522Z,1023.788
2017-05-14T19:01:09.019Z,1023.889
2017-05-14T19:04:03.502Z,1023.914
2017-05-14T19:06:57.974Z,1024.049
2017-05-14T19:09:52.454Z,1024.110
2017-05-14T19:12:47.025Z,1024.204
2017-05-14T19:15:41.705Z,1024.249
2017-05-14T19:18:36.639Z,1024.250
2017-05-14T19:21:31.046Z,1024.316
2017-05-14T19:24:25.593Z,1024.352
2017-05-14T19:27:19.856Z,1024.443
2017-05-14T19:30:14.325Z,1024.484
2017-05-14T19:33:08.711Z,1024.527
2017-05-14T19:36:03.256Z,1024.554
2017-05-14T19:38:57.768Z,1024.571
2017-05-14T19:41:52.124Z,1024.595
2017-05-14T19:44:46.857Z,1024.575
2017-05-14T19:47:41.295Z,1024.628
2017-05-14T19:50:35.825Z,1024.643
2017-05-14T19:56:24.850Z,1024.592
2017-05-14T19:59:19.467Z,1024.570
2017-05-14T20:02:13.970Z,1024.600
2017-05-14T20:05:08.568Z,1024.650
2017-05-14T20:08:03.136Z,1024.608
2017-05-14T20:13:52.479Z,1024.729
2017-05-14T20:16:47.078Z,1024.749
2017-05-14T20:19:41.637Z,1024.708
2017-05-14T20:22:36.311Z,1024.718
2017-05-14T20:25:30.950Z,1024.726
2017-05-14T20:28:25.554Z,1024.725
2017-05-14T20:31:20.081Z,1024.740
2017-05-14T20:34:14.750Z,1024.711
2017-05-14T20:37:09.421Z,1024.738
2017-05-14T20:40:03.950Z,1024.751
2017-05-14T20:42:58.571Z,1024.705
2017-05-14T20:48:47.789Z,1024.704
2017-05-14T20:51:42.438Z,1024.665
2017-05-14T20:54:37.065Z,1024.636
2017-05-14T20:57:31.511Z,1024.612
2017-05-14T21:06:15.448Z,1024.644
2017-05-14T21:09:10.014Z,1024.626
2017-05-14T21:12:04.627Z,1024.632
2017-05-14T21:14:59.199Z,1024.667
2017-05-14T21:20:48.360Z,1024.722
2017-05-14T21:23:42.989Z,1024.769
2017-05-14T21:26:37.469Z,1024.845
2017-05-14T21:29:32.001Z,1024.876
2017-05-14T21:32:26.539Z,1024.886
2017-05-14T21:38:15.655Z,1024.874
2017-05-14T21:41:10.140Z,1024.816
2017-05-14T21:46:59.310Z,1024.806
2017-05-14T21:49:53.898Z,1024.767
2017-05-14T21:52:48.455Z,1024.738
2017-05-14T21:55:42.924Z,1024.734
2017-05-14T21:58:37.539Z,1024.715
2017-05-14T22:01:32.128Z,1024.671
2017-05-14T22:04:26.473Z,1024.619
2017-05-14T22:07:20.981Z,1024.589
2017-05-14T22:13:10.013Z,1024.652
2017-05-14T22:16:04.611Z,1024.627
2017-05-14T22:18:59.218Z,1024.627
2017-05-14T22:21:53.779Z,1024.640
2017-05-14T22:24:48.247Z,1024.660
2017-05-14T22:27:42.789Z,1024.651
2017-05-14T22:30:37.351Z,1024.617
2017-05-14T22:33:31.820Z,1024.611
2017-05-14T22:36:26.317Z,1024.639
2017-05-14T22:39:20.882Z,1024.637
2017-05-14T22:42:15.499Z,1024.631
2017-05-14T22:45:10.021Z,1024.635
2017-05-14T22:48:04.524Z,1024.644
2017-05-14T22:50:59.019Z,1024.638
2017-05-14T22:53:53.624Z,1024.892
2017-05-14T22:56:48.084Z,1024.892
2017-05-14T22:59:42.541Z,1024.877
2017-05-14T23:05:31.560Z,1024.859
2017-05-14T23:08:26.246Z,1024.874
2017-05-14T23:11:20.738Z,1024.852
2017-05-14T23:14:15.244Z,1024.875
2017-05-14T23:17:09.723Z,1024.914
2017-05-14T23:20:04.116Z,1024.933
2017-05-14T23:25:53.128Z,1024.899
2017-05-14T23:28:47.713Z,1024.921
2017-05-14T23:31:42.218Z,1024.941
2017-05-14T23:34:36.741Z,1024.933
2017-05-14T23:37:31.237Z,1024.937
2017-05-14T23:40:25.758Z,1024.928
2017-05-14T23:43:20.244Z,1024.929
2017-05-14T23:46:14.728Z,1024.924
2017-05-14T23:52:03.657Z,1024.935
2017-05-14T23:54:58.208Z,1024.963
2017-05-14T23:57:52.781Z,1024.981
